createdAt,value
2018-12-07T00:01:53.639Z,23.57
2018-12-07T00:06:07.654Z,22.77
2018-12-07T00:10:21.320Z,23.13
2018-12-07T00:14:34.958Z,24.27
2018-12-07T00:18:46.861Z,23.63
2018-12-07T00:23:03.593Z,21.37
2018-12-07T00:27:15.968Z,23.73
2018-12-07T00:31:29.358Z,23.62
2018-12-07T00:35:42.920Z,22.07
2018-12-07T00:39:59.391Z,21.73
2018-12-07T00:44:09.314Z,22.30
2018-12-07T00:48:26.480Z,20.87
2018-12-07T00:52:42.025Z,21.87
2018-12-07T00:56:53.716Z,22.50
2018-12-07T01:01:07.209Z,22.53
2018-12-07T01:05:19.083Z,22.73
2018-12-07T01:09:29.183Z,21.53
2018-12-07T01:13:44.636Z,22.63
2018-12-07T01:17:51.561Z,23.07
2018-12-07T01:22:03.951Z,23.37
2018-12-07T01:26:16.678Z,22.63
2018-12-07T01:30:28.465Z,24.70
2018-12-07T01:34:59.621Z,24.57
2018-12-07T01:39:17.054Z,22.23
2018-12-07T01:43:36.280Z,22.53
2018-12-07T01:47:54.058Z,24.40
2018-12-07T01:52:07.702Z,25.30
2018-12-07T01:56:23.047Z,24.25
2018-12-07T02:00:41.389Z,25.67
2018-12-07T02:04:51.448Z,25.13
2018-12-07T02:09:03.378Z,23.53
2018-12-07T02:13:21.564Z,24.47
2018-12-07T02:17:37.074Z,22.57
2018-12-07T02:21:51.886Z,21.93
2018-12-07T02:26:01.995Z,22.00
2018-12-07T02:30:18.003Z,21.50
2018-12-07T02:34:28.835Z,20.67
2018-12-07T02:38:37.061Z,22.63
2018-12-07T02:42:53.171Z,21.43
2018-12-07T02:47:08.937Z,20.97
2018-12-07T02:51:24.615Z,21.27
2018-12-07T02:55:32.429Z,23.23
2018-12-07T02:59:41.597Z,20.33
2018-12-07T03:08:53.858Z,19.47
2018-12-07T03:13:06.760Z,19.17
2018-12-07T03:17:16.677Z,19.20
2018-12-07T03:21:27.461Z,18.97
2018-12-07T03:25:43.273Z,17.73
2018-12-07T03:29:56.161Z,17.23
2018-12-07T03:34:07.334Z,15.20
2018-12-07T03:38:27.045Z,14.47
2018-12-07T03:42:49.792Z,14.30
2018-12-07T03:47:07.881Z,14.37
2018-12-07T03:51:25.159Z,13.83
2018-12-07T03:55:37.140Z,13.20
2018-12-07T03:59:59.593Z,14.00
2018-12-07T04:04:12.409Z,10.70
2018-12-07T04:08:29.804Z,10.40
2018-12-07T04:12:39.562Z,9.87
2018-12-07T04:16:52.210Z,9.10
2018-12-07T04:21:11.062Z,9.57
2018-12-07T04:25:27.114Z,9.17
2018-12-07T04:29:42.422Z,8.20
2018-12-07T04:33:53.128Z,7.57
2018-12-07T04:38:05.863Z,7.87
2018-12-07T04:42:14.884Z,8.37
2018-12-07T04:46:26.784Z,7.72
2018-12-07T04:50:40.439Z,8.33
2018-12-07T04:54:56.148Z,8.10
2018-12-07T04:59:05.670Z,7.83
2018-12-07T05:03:26.262Z,7.05
2018-12-07T05:07:35.557Z,7.77
2018-12-07T05:11:44.987Z,7.00
2018-12-07T05:15:57.689Z,5.77
2018-12-07T05:20:17.957Z,5.43
2018-12-07T05:24:34.501Z,5.12
2018-12-07T05:28:52.943Z,4.43
2018-12-07T05:33:08.345Z,5.23
2018-12-07T05:37:24.295Z,4.35
2018-12-07T05:41:40.569Z,4.63
2018-12-07T05:45:55.812Z,4.97
2018-12-07T05:50:03.460Z,4.50
2018-12-07T05:54:17.093Z,4.33
2018-12-07T05:58:34.087Z,4.10
2018-12-07T06:02:44.004Z,5.03
2018-12-07T06:06:52.969Z,4.67
2018-12-07T06:11:09.350Z,4.50
2018-12-07T06:15:21.149Z,5.00
2018-12-07T06:19:30.282Z,4.70
2018-12-07T06:23:46.379Z,5.27
2018-12-07T06:27:57.713Z,4.90
2018-12-07T06:32:07.150Z,4.63
2018-12-07T06:36:21.680Z,5.35
2018-12-07T06:40:38.803Z,5.63
2018-12-07T06:44:54.986Z,5.20
2018-12-07T06:49:27.886Z,5.00
2018-12-07T06:53:40.535Z,5.03
2018-12-07T06:57:56.989Z,5.03
2018-12-07T07:02:07.269Z,4.60
2018-12-07T07:06:20.809Z,4.60
2018-12-07T07:10:30.691Z,4.80
2018-12-07T07:14:46.247Z,4.67
2018-12-07T07:18:57.127Z,5.77
2018-12-07T07:23:06.292Z,5.57
2018-12-07T07:27:19.204Z,5.77
2018-12-07T07:31:30.122Z,5.70
2018-12-07T07:35:40.173Z,4.57
2018-12-07T07:39:50.114Z,5.70
2018-12-07T07:44:01.804Z,4.70
2018-12-07T07:48:13.541Z,5.20
2018-12-07T07:52:25.276Z,4.90
2018-12-07T07:56:36.926Z,4.73
2018-12-07T08:00:50.603Z,5.17
2018-12-07T08:05:03.303Z,5.43
2018-12-07T08:09:16.677Z,5.30
2018-12-07T08:13:31.109Z,5.40
2018-12-07T08:17:46.830Z,4.93
2018-12-07T08:21:59.592Z,5.80
2018-12-07T08:26:10.698Z,6.80
2018-12-07T08:30:26.617Z,6.37
2018-12-07T08:34:43.891Z,6.33
2018-12-07T08:38:59.170Z,6.97
2018-12-07T08:43:16.489Z,7.10
2018-12-07T08:47:27.272Z,6.65
2018-12-07T08:51:48.133Z,5.60
2018-12-07T08:56:00.747Z,6.60
2018-12-07T09:00:17.483Z,6.93
